createdAt,value
2018-06-28T00:01:39.793Z,17.10
2018-06-28T00:04:08.947Z,17.83
2018-06-28T00:06:37.860Z,17.20
2018-06-28T00:09:08.902Z,17.53
2018-06-28T00:11:37.808Z,17.40
2018-06-28T00:14:06.753Z,16.47
2018-06-28T00:16:35.745Z,16.07
2018-06-28T00:19:04.757Z,15.90
2018-06-28T00:21:33.765Z,14.83
2018-06-28T00:24:02.716Z,14.77
2018-06-28T00:26:31.645Z,14.03
2018-06-28T00:29:00.548Z,13.40
2018-06-28T00:31:29.641Z,13.13
2018-06-28T00:33:58.566Z,13.27
2018-06-28T00:36:27.503Z,13.90
2018-06-28T00:38:56.704Z,13.97
2018-06-28T00:41:25.623Z,13.87
2018-06-28T00:43:54.791Z,13.43
2018-06-28T00:46:23.910Z,13.37
2018-06-28T00:48:52.853Z,13.20
2018-06-28T00:51:21.772Z,12.53
2018-06-28T00:53:50.809Z,12.30
2018-06-28T00:56:20.371Z,12.37
2018-06-28T00:58:49.376Z,12.17
2018-06-28T01:01:18.367Z,10.53
2018-06-28T01:03:48.068Z,10.83
2018-06-28T01:06:17.862Z,10.90
2018-06-28T01:08:47.564Z,9.93
2018-06-28T01:11:16.632Z,10.10
2018-06-28T01:13:45.724Z,9.63
2018-06-28T01:16:14.760Z,10.30
2018-06-28T01:18:43.885Z,10.07
2018-06-28T01:21:12.882Z,10.60
2018-06-28T01:23:41.834Z,11.00
2018-06-28T01:26:10.788Z,11.23
2018-06-28T01:28:40.399Z,11.07
2018-06-28T01:31:09.347Z,11.27
2018-06-28T01:33:38.381Z,10.87
2018-06-28T01:36:07.379Z,10.47
2018-06-28T01:38:36.344Z,10.33
2018-06-28T01:41:08.405Z,10.50
2018-06-28T01:43:39.607Z,10.70
2018-06-28T01:46:08.688Z,10.77
2018-06-28T01:48:37.718Z,9.63
2018-06-28T01:51:06.727Z,9.67
2018-06-28T01:53:35.841Z,10.00
2018-06-28T01:56:05.008Z,9.23
2018-06-28T01:58:33.926Z,9.10
2018-06-28T02:01:03.104Z,9.17
2018-06-28T02:03:32.116Z,9.80
2018-06-28T02:06:01.102Z,9.40
2018-06-28T02:08:30.050Z,8.77
2018-06-28T02:10:58.982Z,9.63
2018-06-28T02:13:27.889Z,8.13
2018-06-28T02:15:58.064Z,8.50
2018-06-28T02:18:26.976Z,8.47
2018-06-28T02:20:55.890Z,8.13
2018-06-28T02:23:24.952Z,8.20
2018-06-28T02:25:53.969Z,8.97
2018-06-28T02:28:22.869Z,8.10
2018-06-28T02:30:51.849Z,8.27
2018-06-28T02:33:21.124Z,8.37
2018-06-28T02:35:50.053Z,9.00
2018-06-28T02:38:19.170Z,8.53
2018-06-28T02:40:48.179Z,7.87
2018-06-28T02:43:17.250Z,7.80
2018-06-28T02:45:46.768Z,6.40
2018-06-28T02:48:15.717Z,6.50
2018-06-28T02:50:45.166Z,7.17
2018-06-28T02:53:14.221Z,6.07
2018-06-28T02:55:43.122Z,6.77
2018-06-28T02:58:12.108Z,7.20
2018-06-28T03:00:41.181Z,6.57
2018-06-28T03:03:10.104Z,6.60
2018-06-28T03:05:39.116Z,6.60
2018-06-28T03:08:08.184Z,6.40
2018-06-28T03:10:37.135Z,6.37
2018-06-28T03:13:06.100Z,6.57
2018-06-28T03:15:35.202Z,6.07
2018-06-28T03:18:04.143Z,6.53
2018-06-28T03:20:33.046Z,6.67
2018-06-28T03:23:02.054Z,6.57
2018-06-28T03:25:31.033Z,7.57
2018-06-28T03:27:59.994Z,7.13
2018-06-28T03:30:29.137Z,7.13
2018-06-28T03:32:58.084Z,7.27
2018-06-28T03:35:27.977Z,6.77
2018-06-28T03:37:57.375Z,7.07
2018-06-28T03:40:26.181Z,7.53
2018-06-28T03:42:55.112Z,7.47
2018-06-28T03:45:24.587Z,7.17
2018-06-28T03:47:53.521Z,7.23
2018-06-28T03:50:22.440Z,6.83
2018-06-28T03:52:51.531Z,6.80
2018-06-28T03:55:20.604Z,7.43
2018-06-28T03:57:49.609Z,7.37
2018-06-28T04:00:18.655Z,6.70
2018-06-28T04:02:47.742Z,7.03
2018-06-28T04:05:16.689Z,7.40
2018-06-28T04:07:45.782Z,6.80
2018-06-28T04:10:14.739Z,7.77
2018-06-28T04:12:43.790Z,6.77
2018-06-28T04:15:12.877Z,6.10
2018-06-28T04:17:41.860Z,6.63
2018-06-28T04:20:10.966Z,6.10
2018-06-28T04:22:40.015Z,6.13
2018-06-28T04:25:08.982Z,6.30
2018-06-28T04:27:37.937Z,6.33
2018-06-28T04:30:07.032Z,6.10
2018-06-28T04:32:35.970Z,5.77
2018-06-28T04:35:04.972Z,5.57
2018-06-28T04:37:34.125Z,5.03
2018-06-28T04:40:03.093Z,5.07
2018-06-28T04:42:32.017Z,5.27
2018-06-28T04:45:01.555Z,5.50
2018-06-28T04:47:31.776Z,5.00
2018-06-28T04:50:01.289Z,5.50
2018-06-28T04:52:30.305Z,5.50
2018-06-28T04:54:59.224Z,4.50
2018-06-28T04:57:28.783Z,4.80
2018-06-28T04:59:57.782Z,5.00
2018-06-28T05:02:26.767Z,5.00
2018-06-28T05:04:55.763Z,5.07
2018-06-28T05:07:24.668Z,5.33
2018-06-28T05:09:53.567Z,5.17
2018-06-28T05:12:22.680Z,4.70
2018-06-28T05:14:51.585Z,5.10
2018-06-28T05:17:20.875Z,5.10
2018-06-28T05:19:49.914Z,4.70
2018-06-28T05:22:18.824Z,4.83
2018-06-28T05:24:47.801Z,4.90
2018-06-28T05:27:17.607Z,4.73
2018-06-28T05:29:46.505Z,4.90
2018-06-28T05:32:15.403Z,4.77
2018-06-28T05:34:44.437Z,4.53
2018-06-28T05:37:13.406Z,4.40
2018-06-28T05:39:42.343Z,5.13
2018-06-28T05:42:11.446Z,5.07
2018-06-28T05:44:40.357Z,5.07
2018-06-28T05:47:09.401Z,4.87
2018-06-28T05:49:38.605Z,5.37
2018-06-28T05:52:07.589Z,5.00
2018-06-28T05:54:37.218Z,5.40
2018-06-28T05:57:06.382Z,9.80
2018-06-28T05:59:35.417Z,6.43
2018-06-28T06:02:04.657Z,5.67
2018-06-28T06:04:33.653Z,5.60
2018-06-28T06:07:02.540Z,5.83
2018-06-28T06:09:31.477Z,5.03
2018-06-28T06:12:00.460Z,5.10
2018-06-28T06:14:29.481Z,37.27
2018-06-28T06:16:58.488Z,6.00
2018-06-28T06:19:27.449Z,4.60
2018-06-28T06:21:56.426Z,4.27
2018-06-28T06:24:25.416Z,3.80
2018-06-28T06:26:54.557Z,4.30
2018-06-28T06:29:23.574Z,4.13
2018-06-28T06:31:52.553Z,4.10
2018-06-28T06:34:21.912Z,3.70
2018-06-28T06:36:51.041Z,3.80
2018-06-28T06:39:19.970Z,3.80
2018-06-28T06:41:48.948Z,4.03
2018-06-28T06:44:17.904Z,3.77
2018-06-28T06:46:46.820Z,3.50
2018-06-28T06:49:15.744Z,3.30
2018-06-28T06:51:44.888Z,4.53
2018-06-28T06:54:13.795Z,5.13
2018-06-28T06:56:42.851Z,3.47
2018-06-28T06:59:11.865Z,3.40
2018-06-28T07:01:40.788Z,3.40
2018-06-28T07:04:09.810Z,6.07
2018-06-28T07:06:38.809Z,7.73
2018-06-28T07:09:11.041Z,9.23
2018-06-28T07:11:40.182Z,4.13
2018-06-28T07:14:09.538Z,3.70
2018-06-28T07:16:38.601Z,3.37
2018-06-28T07:19:07.636Z,3.43
2018-06-28T07:21:36.679Z,2.97
2018-06-28T07:24:05.784Z,3.43
2018-06-28T07:26:34.715Z,3.73
2018-06-28T07:29:03.691Z,3.73
2018-06-28T07:31:32.755Z,3.60
2018-06-28T07:34:01.737Z,3.70
2018-06-28T07:36:30.617Z,3.77
2018-06-28T07:39:00.535Z,4.10
2018-06-28T07:41:29.736Z,4.23
2018-06-28T07:43:58.629Z,5.20
2018-06-28T07:46:27.624Z,4.40
2018-06-28T07:48:56.779Z,4.30
2018-06-28T07:51:25.701Z,4.10
2018-06-28T07:53:54.722Z,4.20
2018-06-28T07:56:23.814Z,4.27
2018-06-28T07:58:52.859Z,12.00
2018-06-28T08:01:22.073Z,4.80
2018-06-28T08:03:51.084Z,6.30
2018-06-28T08:06:20.868Z,5.83
2018-06-28T08:08:50.508Z,5.33
2018-06-28T08:11:20.316Z,5.00
2018-06-28T08:13:49.685Z,5.20
2018-06-28T08:16:18.691Z,4.47
2018-06-28T08:18:47.697Z,4.40
2018-06-28T08:21:15.530Z,4.57
2018-06-28T08:23:44.580Z,5.00
2018-06-28T08:26:15.775Z,5.17
2018-06-28T08:28:44.733Z,5.10
2018-06-28T08:31:14.388Z,5.30
2018-06-28T08:33:43.523Z,5.67
2018-06-28T08:36:12.618Z,4.87
2018-06-28T08:38:41.575Z,5.00
2018-06-28T08:41:10.593Z,5.40
2018-06-28T08:43:39.541Z,5.10
2018-06-28T08:46:08.553Z,5.33
2018-06-28T08:48:37.576Z,5.10
2018-06-28T08:51:06.519Z,5.63
2018-06-28T08:53:35.537Z,6.10
2018-06-28T08:56:05.074Z,5.27
2018-06-28T08:58:33.985Z,5.70
2018-06-28T09:01:02.989Z,5.43
2018-06-28T09:03:32.957Z,6.70
2018-06-28T09:06:01.920Z,6.53
2018-06-28T09:08:30.875Z,5.67
2018-06-28T09:10:59.857Z,6.43
2018-06-28T09:13:28.787Z,6.30
2018-06-28T09:15:57.768Z,7.33
2018-06-28T09:18:26.788Z,5.90
2018-06-28T09:20:55.711Z,5.83
2018-06-28T09:23:24.748Z,6.33
2018-06-28T09:25:53.773Z,6.23
2018-06-28T09:28:22.737Z,6.37
2018-06-28T09:30:51.745Z,6.27
2018-06-28T09:33:20.789Z,5.57
2018-06-28T09:35:49.834Z,5.60
2018-06-28T09:38:18.840Z,5.37
2018-06-28T09:40:47.857Z,5.80
2018-06-28T09:43:16.844Z,6.13
2018-06-28T09:45:45.836Z,5.47
2018-06-28T09:48:15.004Z,5.63
2018-06-28T09:50:43.967Z,5.40
2018-06-28T09:53:13.019Z,11.77
2018-06-28T09:55:42.052Z,5.63
2018-06-28T09:58:11.070Z,5.90
2018-06-28T10:00:46.052Z,6.27
2018-06-28T10:03:15.763Z,6.17
2018-06-28T10:05:45.255Z,6.23
2018-06-28T10:08:14.241Z,6.30
2018-06-28T10:10:43.386Z,6.03
2018-06-28T10:13:12.402Z,7.70
2018-06-28T10:15:41.517Z,6.57
2018-06-28T10:18:10.496Z,7.13
2018-06-28T10:20:39.569Z,7.03
2018-06-28T10:23:08.551Z,6.57
2018-06-28T10:25:37.454Z,6.10
2018-06-28T10:28:06.720Z,6.57
2018-06-28T10:30:35.731Z,5.90
2018-06-28T10:33:04.639Z,6.47
2018-06-28T10:35:34.464Z,7.20
2018-06-28T10:38:03.491Z,7.50
2018-06-28T10:40:32.426Z,6.83
2018-06-28T10:43:01.461Z,6.10
2018-06-28T10:45:31.478Z,7.13
2018-06-28T10:48:00.533Z,7.33
2018-06-28T10:50:29.496Z,7.33
2018-06-28T10:52:59.255Z,6.97
2018-06-28T10:55:29.120Z,7.00
2018-06-28T10:57:58.116Z,7.13
2018-06-28T11:00:27.771Z,7.50
2018-06-28T11:02:56.762Z,8.77
2018-06-28T11:05:25.758Z,8.40
2018-06-28T11:07:54.752Z,8.97
2018-06-28T11:10:23.713Z,7.33
2018-06-28T11:12:52.800Z,9.00
2018-06-28T11:15:21.740Z,9.73
2018-06-28T11:17:50.784Z,9.97
2018-06-28T11:20:20.608Z,9.53
2018-06-28T11:22:49.568Z,10.23
2018-06-28T11:25:18.666Z,9.60
2018-06-28T11:27:47.832Z,10.90
2018-06-28T11:30:16.881Z,8.07
2018-06-28T11:32:45.864Z,8.03
2018-06-28T11:35:14.959Z,6.70
2018-06-28T11:37:44.053Z,4.77
2018-06-28T11:40:13.163Z,4.27
2018-06-28T11:42:42.239Z,4.30
2018-06-28T11:45:11.292Z,4.63
2018-06-28T11:47:40.298Z,4.70
2018-06-28T11:50:09.403Z,5.40
2018-06-28T11:52:38.477Z,5.00
2018-06-28T11:55:07.469Z,5.07
2018-06-28T11:57:36.560Z,5.00
2018-06-28T12:00:06.264Z,4.73
2018-06-28T12:02:35.384Z,5.17
2018-06-28T12:05:04.489Z,5.70
2018-06-28T12:07:33.491Z,5.77
2018-06-28T12:10:02.470Z,5.53
2018-06-28T12:12:31.541Z,5.67
2018-06-28T12:15:00.798Z,5.70
2018-06-28T12:17:29.700Z,5.97
2018-06-28T12:19:58.796Z,6.00
2018-06-28T12:22:27.964Z,5.63
2018-06-28T12:24:56.844Z,6.33
2018-06-28T12:27:26.049Z,7.07
2018-06-28T12:29:55.095Z,6.50
2018-06-28T12:32:24.049Z,6.80
2018-06-28T12:34:53.145Z,6.30
2018-06-28T12:37:22.098Z,7.20
2018-06-28T12:39:51.133Z,6.53
2018-06-28T12:42:20.143Z,6.43
2018-06-28T12:44:49.656Z,6.83
2018-06-28T12:47:44.562Z,6.83
2018-06-28T12:50:13.709Z,6.20
2018-06-28T12:52:50.965Z,7.10
2018-06-28T12:55:20.851Z,7.30
2018-06-28T12:57:50.423Z,7.40
2018-06-28T13:00:19.739Z,8.40
2018-06-28T13:02:48.888Z,8.50
2018-06-28T13:05:18.679Z,7.90
2018-06-28T13:07:47.872Z,8.20
2018-06-28T13:10:18.346Z,8.27
2018-06-28T13:12:47.382Z,8.33
2018-06-28T13:15:16.924Z,8.50
2018-06-28T13:17:46.611Z,8.87
2018-06-28T13:20:15.867Z,8.90
2018-06-28T13:22:44.924Z,9.93
2018-06-28T13:25:13.915Z,9.50
2018-06-28T13:27:42.967Z,9.10
2018-06-28T13:30:12.025Z,9.30
2018-06-28T13:32:40.983Z,9.63
2018-06-28T13:35:09.987Z,9.13
2018-06-28T13:37:39.017Z,8.97
2018-06-28T13:40:08.068Z,9.53
2018-06-28T13:42:37.616Z,9.63
2018-06-28T13:45:06.722Z,9.93
2018-06-28T13:47:36.346Z,10.20
2018-06-28T13:50:05.765Z,11.40
2018-06-28T13:52:34.756Z,11.17
2018-06-28T13:55:04.816Z,10.70
2018-06-28T13:57:33.879Z,10.77
2018-06-28T14:00:02.883Z,11.20
2018-06-28T14:02:31.888Z,11.67
2018-06-28T14:05:01.044Z,11.43
2018-06-28T14:07:30.084Z,11.13
2018-06-28T14:09:59.081Z,11.80
2018-06-28T14:12:28.300Z,12.57
2018-06-28T14:15:03.648Z,12.80
2018-06-28T14:17:36.397Z,12.53
2018-06-28T14:20:07.514Z,13.77
2018-06-28T14:22:36.680Z,14.00
2018-06-28T14:25:06.035Z,12.27
2018-06-28T14:27:35.148Z,8.67
2018-06-28T14:30:04.473Z,7.87
2018-06-28T14:32:35.194Z,9.40
2018-06-28T14:35:04.459Z,8.40
2018-06-28T14:37:33.523Z,9.40
2018-06-28T14:40:02.545Z,9.87
2018-06-28T14:42:31.587Z,8.07
2018-06-28T14:45:00.818Z,9.00
2018-06-28T14:47:30.052Z,8.57
2018-06-28T14:49:59.290Z,8.90
2018-06-28T14:52:28.577Z,9.10
2018-06-28T14:54:58.680Z,10.50
2018-06-28T14:57:27.870Z,9.90
2018-06-28T14:59:57.029Z,9.13
2018-06-28T15:02:26.013Z,8.90
2018-06-28T15:04:55.710Z,9.03
2018-06-28T15:07:24.846Z,9.43
2018-06-28T15:09:53.843Z,8.07
2018-06-28T15:12:22.913Z,8.57
2018-06-28T15:14:51.976Z,9.37
2018-06-28T15:17:20.950Z,10.57
2018-06-28T15:19:50.859Z,11.13
2018-06-28T15:22:19.946Z,9.70
2018-06-28T15:24:48.912Z,9.60
2018-06-28T15:27:18.506Z,9.10
2018-06-28T15:29:47.489Z,8.07
2018-06-28T15:32:16.535Z,8.40
2018-06-28T15:34:45.830Z,9.47
2018-06-28T15:37:14.804Z,8.97
2018-06-28T15:39:44.227Z,12.00
2018-06-28T15:42:13.297Z,18.67
2018-06-28T15:45:09.005Z,10.13
2018-06-28T15:47:41.645Z,11.90
2018-06-28T15:50:13.101Z,11.30
2018-06-28T15:52:44.576Z,10.73
2018-06-28T15:55:13.701Z,9.97
2018-06-28T15:57:42.754Z,11.33
2018-06-28T16:00:11.800Z,42.00
2018-06-28T16:02:40.816Z,14.57
2018-06-28T16:05:09.808Z,8.67
2018-06-28T16:07:39.337Z,8.10
2018-06-28T16:10:09.229Z,7.83
2018-06-28T16:12:38.275Z,7.30
2018-06-28T16:15:07.505Z,7.17
2018-06-28T16:17:36.613Z,8.27
2018-06-28T16:20:05.915Z,7.63
2018-06-28T16:22:34.884Z,8.60
2018-06-28T16:25:03.943Z,8.87
2018-06-28T16:27:32.931Z,8.07
2018-06-28T16:30:02.014Z,9.83
2018-06-28T16:32:31.051Z,11.10
2018-06-28T16:35:00.286Z,11.77
2018-06-28T16:37:31.306Z,10.07
2018-06-28T16:40:00.529Z,11.27
2018-06-28T16:42:29.570Z,11.70
2018-06-28T16:44:58.668Z,11.07
2018-06-28T16:47:27.785Z,9.53
2018-06-28T16:49:56.818Z,10.83
2018-06-28T16:52:25.984Z,10.13
2018-06-28T16:54:55.136Z,8.63
2018-06-28T16:57:24.202Z,10.60
2018-06-28T16:59:53.321Z,9.63
2018-06-28T17:02:22.348Z,9.77
2018-06-28T17:04:51.402Z,7.30
2018-06-28T17:07:20.503Z,8.00
2018-06-28T17:09:49.909Z,7.90
2018-06-28T17:12:18.867Z,7.77
2018-06-28T17:14:49.101Z,7.67
2018-06-28T17:17:19.273Z,7.20
2018-06-28T17:19:48.371Z,8.40
2018-06-28T17:22:17.375Z,8.70
2018-06-28T17:24:46.951Z,8.30
2018-06-28T17:27:16.064Z,7.77
2018-06-28T17:29:45.071Z,7.73
2018-06-28T17:32:14.063Z,8.37
2018-06-28T17:34:43.207Z,8.60
2018-06-28T17:37:12.584Z,10.00
2018-06-28T17:39:44.266Z,10.73
2018-06-28T17:42:13.695Z,8.37
2018-06-28T17:44:42.794Z,8.80
2018-06-28T17:47:12.680Z,11.37
2018-06-28T17:49:41.751Z,12.83
2018-06-28T17:52:10.879Z,15.30
2018-06-28T17:54:40.679Z,13.70
2018-06-28T17:57:09.664Z,23.00
2018-06-28T17:59:38.680Z,13.93
2018-06-28T18:02:07.773Z,11.17
2018-06-28T18:04:36.769Z,9.57
2018-06-28T18:07:06.148Z,9.50
2018-06-28T18:09:35.181Z,9.63
2018-06-28T18:12:04.334Z,9.70
2018-06-28T18:14:34.063Z,8.90
2018-06-28T18:17:03.228Z,8.30
2018-06-28T18:19:32.250Z,8.57
2018-06-28T18:22:01.337Z,6.93
2018-06-28T18:24:31.090Z,6.87
2018-06-28T18:27:00.224Z,6.73
2018-06-28T18:29:29.520Z,5.77
2018-06-28T18:31:58.640Z,4.83
2018-06-28T18:34:27.660Z,4.83
2018-06-28T18:36:56.725Z,4.70
2018-06-28T18:39:26.451Z,4.33
2018-06-28T18:42:07.884Z,4.73
2018-06-28T18:44:36.941Z,6.40
2018-06-28T18:47:06.330Z,4.80
2018-06-28T18:49:35.411Z,6.73
2018-06-28T18:52:04.475Z,6.90
2018-06-28T18:54:33.502Z,5.43
2018-06-28T18:57:02.549Z,5.33
2018-06-28T18:59:31.621Z,6.30
2018-06-28T19:02:00.718Z,5.00
2018-06-28T19:04:29.919Z,5.47
2018-06-28T19:06:59.609Z,6.80
2018-06-28T19:09:34.430Z,5.67
2018-06-28T19:12:04.095Z,5.37
2018-06-28T19:14:38.076Z,4.87
2018-06-28T19:17:08.036Z,5.13
2018-06-28T19:19:37.035Z,4.60
2018-06-28T19:22:12.090Z,4.10
2018-06-28T19:24:41.044Z,4.67
2018-06-28T19:27:10.602Z,4.83
2018-06-28T19:29:44.675Z,4.60
2018-06-28T19:34:54.648Z,4.23
2018-06-28T19:37:29.129Z,4.83
2018-06-28T19:40:03.464Z,4.27
2018-06-28T19:42:37.603Z,4.63
2018-06-28T19:45:07.117Z,4.73
2018-06-28T19:47:36.339Z,4.37
2018-06-28T19:50:10.746Z,4.97
2018-06-28T19:52:44.742Z,4.40
2018-06-28T19:55:13.865Z,4.77
2018-06-28T19:57:42.823Z,5.33
2018-06-28T20:00:15.952Z,5.50
2018-06-28T20:02:49.964Z,6.00
2018-06-28T20:05:18.938Z,6.67
2018-06-28T20:07:47.923Z,6.90
2018-06-28T20:10:16.857Z,6.27
2018-06-28T20:12:51.069Z,5.67
2018-06-28T20:15:30.190Z,6.37
2018-06-28T20:18:04.197Z,7.83
2018-06-28T20:20:34.785Z,9.13
2018-06-28T20:23:03.906Z,10.90
2018-06-28T20:25:33.204Z,10.87
2018-06-28T20:28:07.189Z,11.63
2018-06-28T20:30:41.238Z,12.33
2018-06-28T20:33:15.509Z,11.73
2018-06-28T20:35:44.544Z,11.40
2018-06-28T20:38:13.528Z,11.47
2018-06-28T20:40:43.249Z,10.83
2018-06-28T20:43:12.240Z,11.07
2018-06-28T20:45:41.214Z,11.53
2018-06-28T20:48:10.484Z,11.97
2018-06-28T20:50:39.606Z,12.40
2018-06-28T20:53:08.731Z,12.07
2018-06-28T20:55:37.715Z,11.37
2018-06-28T20:58:07.579Z,11.90
2018-06-28T21:00:36.604Z,11.50
2018-06-28T21:03:06.946Z,10.97
2018-06-28T21:05:36.092Z,10.93
2018-06-28T21:08:05.256Z,10.80
2018-06-28T21:10:34.189Z,10.00
2018-06-28T21:13:03.310Z,10.50
2018-06-28T21:15:32.261Z,9.77
2018-06-28T21:18:01.204Z,10.13
2018-06-28T21:20:30.297Z,9.87
2018-06-28T21:22:59.300Z,10.27
2018-06-28T21:25:30.588Z,9.57
2018-06-28T21:27:59.604Z,9.63
2018-06-28T21:30:28.563Z,10.00
2018-06-28T21:32:57.584Z,9.10
2018-06-28T21:35:26.514Z,10.03
2018-06-28T21:37:55.593Z,11.17
2018-06-28T21:40:24.733Z,10.83
2018-06-28T21:42:54.124Z,10.90
2018-06-28T21:45:23.275Z,10.70
2018-06-28T21:47:52.268Z,10.03
2018-06-28T21:50:22.229Z,9.80
2018-06-28T21:52:51.241Z,9.57
2018-06-28T21:55:20.332Z,9.53
2018-06-28T21:57:49.374Z,9.07
2018-06-28T22:00:30.086Z,7.87
2018-06-28T22:02:59.706Z,7.67
2018-06-28T22:05:28.937Z,7.50
2018-06-28T22:07:58.509Z,7.13
2018-06-28T22:10:27.699Z,7.03
2018-06-28T22:12:57.076Z,6.87
2018-06-28T22:15:28.618Z,6.87
2018-06-28T22:17:58.820Z,6.37
2018-06-28T22:20:29.254Z,6.23
2018-06-28T22:22:58.456Z,6.00
2018-06-28T22:25:28.566Z,6.37
2018-06-28T22:27:57.636Z,7.07
2018-06-28T22:30:26.733Z,7.80
2018-06-28T22:32:55.721Z,7.50
2018-06-28T22:35:24.784Z,7.40
2018-06-28T22:37:53.718Z,8.50
2018-06-28T22:40:22.706Z,8.50
2018-06-28T22:42:51.909Z,8.57
2018-06-28T22:45:20.867Z,8.20
2018-06-28T22:47:49.911Z,8.73
2018-06-28T22:50:19.055Z,9.60
2018-06-28T22:52:48.011Z,9.80
2018-06-28T22:55:16.990Z,9.20
2018-06-28T22:57:46.011Z,10.50
2018-06-28T23:00:21.287Z,10.63
2018-06-28T23:02:50.357Z,9.70
2018-06-28T23:05:19.648Z,10.67
2018-06-28T23:07:48.703Z,9.93
2018-06-28T23:10:17.905Z,10.37
2018-06-28T23:12:47.070Z,10.33
2018-06-28T23:15:15.872Z,10.97
2018-06-28T23:17:45.025Z,11.20
2018-06-28T23:20:14.004Z,11.17
2018-06-28T23:22:50.392Z,9.97
2018-06-28T23:25:19.869Z,10.70
2018-06-28T23:27:50.563Z,9.67
2018-06-28T23:30:19.732Z,10.37
2018-06-28T23:32:48.807Z,10.37
2018-06-28T23:35:17.890Z,10.23
2018-06-28T23:37:47.469Z,10.60
2018-06-28T23:40:16.479Z,11.40
2018-06-28T23:42:46.583Z,11.10
2018-06-28T23:45:15.620Z,10.20
2018-06-28T23:47:44.610Z,9.77
2018-06-28T23:50:13.731Z,8.63
2018-06-28T23:52:42.724Z,8.73
2018-06-28T23:55:11.801Z,9.97
2018-06-28T23:57:40.809Z,10.33
